createdAt,value
2023-09-17T00:00:15.862Z,0.00
2023-09-17T00:01:16.659Z,0.00
2023-09-17T00:02:17.766Z,0.00
2023-09-17T00:03:18.754Z,0.00
2023-09-17T00:04:19.672Z,0.00
2023-09-17T00:05:20.756Z,0.00
2023-09-17T00:06:21.723Z,0.00
2023-09-17T00:07:22.885Z,0.00
2023-09-17T00:08:23.790Z,0.00
2023-09-17T00:09:24.834Z,0.00
2023-09-17T00:10:25.965Z,0.00
2023-09-17T00:11:26.825Z,0.00
2023-09-17T00:12:27.506Z,0.00
2023-09-17T00:13:28.752Z,0.00
2023-09-17T00:14:29.545Z,0.00
2023-09-17T00:15:30.736Z,0.00
2023-09-17T00:16:31.537Z,0.00
2023-09-17T00:17:32.540Z,0.00
2023-09-17T00:18:33.664Z,0.00
2023-09-17T00:19:34.891Z,0.00
2023-09-17T00:20:35.689Z,0.00
2023-09-17T00:21:36.567Z,0.00
2023-09-17T00:22:37.517Z,0.00
2023-09-17T00:23:38.566Z,0.00
2023-09-17T00:24:39.545Z,0.00
2023-09-17T00:25:40.786Z,0.00
2023-09-17T00:26:41.736Z,0.00
2023-09-17T00:27:42.649Z,0.00
2023-09-17T00:28:43.563Z,0.00
2023-09-17T00:29:44.674Z,0.00
2023-09-17T00:30:45.798Z,0.00
2023-09-17T00:31:46.632Z,0.00
2023-09-17T00:32:47.619Z,0.00
2023-09-17T00:33:48.901Z,0.00
2023-09-17T00:34:49.594Z,0.00
2023-09-17T00:35:50.827Z,0.00
2023-09-17T00:36:51.649Z,0.00
2023-09-17T00:37:52.812Z,0.00
2023-09-17T00:38:53.731Z,0.00
2023-09-17T00:39:54.649Z,0.00
2023-09-17T00:40:55.824Z,0.00
2023-09-17T00:41:56.717Z,0.00
2023-09-17T00:42:57.839Z,0.00
2023-09-17T00:43:58.722Z,0.00
2023-09-17T00:44:59.713Z,0.00
2023-09-17T00:46:00.826Z,0.00
2023-09-17T00:47:01.823Z,0.00
2023-09-17T00:48:02.801Z,0.00
2023-09-17T00:49:03.825Z,0.00
2023-09-17T00:50:04.734Z,0.00
2023-09-17T00:51:05.829Z,0.00
2023-09-17T00:52:06.780Z,0.00
2023-09-17T00:53:07.819Z,0.00
2023-09-17T00:54:08.781Z,0.00
2023-09-17T00:55:09.815Z,0.00
2023-09-17T00:56:10.888Z,0.00
2023-09-17T00:57:11.905Z,0.00
2023-09-17T00:58:12.959Z,0.00
2023-09-17T00:59:13.885Z,0.00
2023-09-17T01:00:14.919Z,0.00
2023-09-17T01:01:16.005Z,0.00
2023-09-17T01:02:16.950Z,0.00
2023-09-17T01:03:17.927Z,0.00
2023-09-17T01:04:18.911Z,0.00
2023-09-17T01:05:20.028Z,0.00
2023-09-17T01:06:20.957Z,0.00
2023-09-17T01:07:21.993Z,0.00
2023-09-17T01:08:22.989Z,0.00
2023-09-17T01:09:24.014Z,0.00
2023-09-17T01:10:25.100Z,0.00
2023-09-17T01:11:26.016Z,0.00
2023-09-17T01:12:26.620Z,0.00
2023-09-17T01:13:27.709Z,0.00
2023-09-17T01:14:28.708Z,0.00
2023-09-17T01:15:29.921Z,0.00
2023-09-17T01:16:30.920Z,0.00
2023-09-17T01:17:31.990Z,0.00
2023-09-17T01:18:32.716Z,0.00
2023-09-17T01:19:34.077Z,0.00
2023-09-17T01:20:35.058Z,0.00
2023-09-17T01:21:35.973Z,0.00
2023-09-17T01:22:36.844Z,0.00
2023-09-17T01:23:37.750Z,0.00
2023-09-17T01:24:38.869Z,0.00
2023-09-17T01:25:39.956Z,0.00
2023-09-17T01:26:41.019Z,0.00
2023-09-17T01:27:41.879Z,0.00
2023-09-17T01:28:42.933Z,0.00
2023-09-17T01:29:43.990Z,0.00
2023-09-17T01:30:45.042Z,0.00
2023-09-17T01:31:45.970Z,0.00
2023-09-17T01:32:46.968Z,0.00
2023-09-17T01:33:47.880Z,0.00
2023-09-17T01:34:48.978Z,0.00
2023-09-17T01:35:49.948Z,0.00
2023-09-17T01:36:51.039Z,0.00
2023-09-17T01:37:52.027Z,0.00
2023-09-17T01:38:54.034Z,0.00
2023-09-17T01:39:53.946Z,0.00
2023-09-17T01:40:54.944Z,0.00
2023-09-17T01:41:56.014Z,0.00
2023-09-17T01:42:56.992Z,0.00
2023-09-17T01:43:58.065Z,0.00
2023-09-17T01:44:59.008Z,0.00
2023-09-17T01:46:00.209Z,0.00
2023-09-17T01:47:01.050Z,0.00
2023-09-17T01:48:02.051Z,0.00
2023-09-17T01:49:08.256Z,0.00
2023-09-17T01:50:04.144Z,0.00
2023-09-17T01:51:05.063Z,0.00
2023-09-17T01:52:06.194Z,0.00
2023-09-17T01:53:07.110Z,0.00
2023-09-17T01:54:08.177Z,0.00
2023-09-17T01:55:09.121Z,0.00
2023-09-17T01:56:10.163Z,0.00
2023-09-17T01:57:11.219Z,0.00
2023-09-17T01:58:12.247Z,0.00
2023-09-17T01:59:13.218Z,0.00
2023-09-17T02:00:14.406Z,0.00
2023-09-17T02:01:15.418Z,0.00
2023-09-17T02:02:16.562Z,0.00
2023-09-17T02:03:17.393Z,0.00
2023-09-17T02:04:18.366Z,0.00
2023-09-17T02:05:19.219Z,0.00
2023-09-17T02:06:20.337Z,0.00
2023-09-17T02:07:21.351Z,0.00
2023-09-17T02:08:22.354Z,0.00
2023-09-17T02:09:23.301Z,0.00
2023-09-17T02:10:24.312Z,0.00
2023-09-17T02:11:25.283Z,0.00
2023-09-17T02:12:25.912Z,0.00
2023-09-17T02:13:26.979Z,0.00
2023-09-17T02:14:27.997Z,0.00
2023-09-17T02:15:29.084Z,0.00
2023-09-17T02:16:29.984Z,0.00
2023-09-17T02:17:30.987Z,0.00
2023-09-17T02:18:32.073Z,0.00
2023-09-17T02:19:32.944Z,0.00
2023-09-17T02:20:37.258Z,0.00
2023-09-17T02:21:35.137Z,0.00
2023-09-17T02:22:36.441Z,0.00
2023-09-17T02:23:37.121Z,0.00
2023-09-17T02:24:38.153Z,0.00
2023-09-17T02:25:39.055Z,0.00
2023-09-17T02:26:40.059Z,0.00
2023-09-17T02:27:41.270Z,0.00
2023-09-17T02:28:42.220Z,0.00
2023-09-17T02:29:43.222Z,0.00
2023-09-17T02:30:44.203Z,0.00
2023-09-17T02:31:45.203Z,0.00
2023-09-17T02:32:46.169Z,0.00
2023-09-17T02:33:47.119Z,0.00
2023-09-17T02:34:48.240Z,0.00
2023-09-17T02:35:49.147Z,0.00
2023-09-17T02:36:50.221Z,0.00
2023-09-17T02:37:51.282Z,0.00
2023-09-17T02:38:52.145Z,0.00
2023-09-17T02:39:53.212Z,0.00
2023-09-17T02:40:54.210Z,0.00
2023-09-17T02:41:55.161Z,0.00
2023-09-17T02:42:56.262Z,0.00
2023-09-17T02:43:57.288Z,0.00
2023-09-17T02:44:58.256Z,0.00
2023-09-17T02:45:59.416Z,0.00
2023-09-17T02:47:00.300Z,0.00
2023-09-17T02:48:01.503Z,0.00
2023-09-17T02:49:02.372Z,0.00
2023-09-17T02:50:03.324Z,0.00
2023-09-17T02:51:04.335Z,0.00
2023-09-17T02:52:05.333Z,0.00
2023-09-17T02:53:06.824Z,0.00
2023-09-17T02:54:07.288Z,0.00
2023-09-17T02:55:08.345Z,0.00
2023-09-17T02:56:09.386Z,0.00
2023-09-17T02:57:10.514Z,0.00
2023-09-17T02:58:11.469Z,0.00
2023-09-17T02:59:12.684Z,0.00
2023-09-17T03:00:13.517Z,0.00
2023-09-17T03:01:14.483Z,0.00
2023-09-17T03:02:15.475Z,0.00
2023-09-17T03:03:16.544Z,0.00
2023-09-17T03:04:17.443Z,0.00
2023-09-17T03:05:18.480Z,0.00
2023-09-17T03:06:19.467Z,0.00
2023-09-17T03:07:20.476Z,0.00
2023-09-17T03:08:21.535Z,0.00
2023-09-17T03:09:23.628Z,0.00
2023-09-17T03:10:23.546Z,0.00
2023-09-17T03:11:24.427Z,0.00
2023-09-17T03:12:25.059Z,0.00
2023-09-17T03:13:26.172Z,0.00
2023-09-17T03:14:27.168Z,0.00
2023-09-17T03:15:28.304Z,0.00
2023-09-17T03:16:29.222Z,0.00
2023-09-17T03:17:30.442Z,0.00
2023-09-17T03:18:31.271Z,0.00
2023-09-17T03:19:32.213Z,0.00
2023-09-17T03:20:33.302Z,0.00
2023-09-17T03:21:34.503Z,0.00
2023-09-17T03:22:35.541Z,0.00
2023-09-17T03:23:36.461Z,0.00
2023-09-17T03:24:38.214Z,0.00
2023-09-17T03:25:38.216Z,0.00
2023-09-17T03:26:39.352Z,0.00
2023-09-17T03:27:40.373Z,0.00
2023-09-17T03:28:41.505Z,0.00
2023-09-17T03:29:42.409Z,0.00
2023-09-17T03:30:43.504Z,0.00
2023-09-17T03:31:44.288Z,0.00
2023-09-17T03:32:57.732Z,0.00
2023-09-17T03:33:46.390Z,0.00
2023-09-17T03:34:47.386Z,0.00
2023-09-17T03:35:48.413Z,0.00
2023-09-17T03:36:49.338Z,0.00
2023-09-17T03:37:50.359Z,0.00
2023-09-17T03:38:51.439Z,0.00
2023-09-17T03:39:52.539Z,0.00
2023-09-17T03:40:53.428Z,0.00
2023-09-17T03:41:54.448Z,0.00
2023-09-17T03:42:55.348Z,0.00
2023-09-17T03:43:56.600Z,0.00
2023-09-17T03:44:57.393Z,0.00
2023-09-17T03:45:58.668Z,0.00
2023-09-17T03:46:59.600Z,0.00
2023-09-17T03:48:00.473Z,0.00
2023-09-17T03:49:01.651Z,0.00
2023-09-17T03:50:02.469Z,0.00
2023-09-17T03:51:03.420Z,0.00
2023-09-17T03:52:04.498Z,0.00
2023-09-17T03:53:05.512Z,0.00
2023-09-17T03:54:06.546Z,0.00
2023-09-17T03:55:07.598Z,0.00
2023-09-17T03:56:08.517Z,0.00
2023-09-17T03:57:09.501Z,0.00
2023-09-17T03:58:10.484Z,0.00
2023-09-17T03:59:11.627Z,0.00
2023-09-17T04:00:12.632Z,0.00
2023-09-17T04:01:13.602Z,0.00
2023-09-17T04:02:14.718Z,0.00
2023-09-17T04:03:15.570Z,0.00
2023-09-17T04:04:16.639Z,0.00
2023-09-17T04:05:17.593Z,0.00
2023-09-17T04:06:18.673Z,0.00
2023-09-17T04:07:19.871Z,0.00
2023-09-17T04:08:20.864Z,0.00
2023-09-17T04:09:21.714Z,0.00
2023-09-17T04:10:22.765Z,0.00
2023-09-17T04:11:23.644Z,0.00
2023-09-17T04:12:24.272Z,0.00
2023-09-17T04:13:25.338Z,0.00
2023-09-17T04:14:27.586Z,0.00
2023-09-17T04:15:27.437Z,0.00
2023-09-17T04:16:28.505Z,0.00
2023-09-17T04:17:30.016Z,0.00
2023-09-17T04:18:30.314Z,0.00
2023-09-17T04:19:31.451Z,0.00
2023-09-17T04:20:32.638Z,0.01
2023-09-17T04:21:33.551Z,0.01
2023-09-17T04:22:34.905Z,0.02
2023-09-17T04:23:35.629Z,0.02
2023-09-17T04:24:36.683Z,0.02
2023-09-17T04:25:37.436Z,0.02
2023-09-17T04:26:38.642Z,0.03
2023-09-17T04:27:40.715Z,0.05
2023-09-17T04:28:40.694Z,0.06
2023-09-17T04:29:41.533Z,0.06
2023-09-17T04:30:42.654Z,0.08
2023-09-17T04:31:43.622Z,0.10
2023-09-17T04:32:44.543Z,0.13
2023-09-17T04:33:46.996Z,0.16
2023-09-17T04:34:46.575Z,0.18
2023-09-17T04:35:47.493Z,0.21
2023-09-17T04:36:48.658Z,0.26
2023-09-17T04:37:49.971Z,0.31
2023-09-17T04:38:50.665Z,0.37
2023-09-17T04:39:51.784Z,0.44
2023-09-17T04:40:52.792Z,0.51
2023-09-17T04:41:53.864Z,0.59
2023-09-17T04:42:54.633Z,0.69
2023-09-17T04:43:55.747Z,0.81
2023-09-17T04:44:58.717Z,0.92
2023-09-17T04:45:57.924Z,1.02
2023-09-17T04:46:58.812Z,1.16
2023-09-17T04:47:59.803Z,1.31
2023-09-17T04:49:00.778Z,1.48
2023-09-17T04:50:01.864Z,1.65
2023-09-17T04:51:02.801Z,1.77
2023-09-17T04:52:03.723Z,1.92
2023-09-17T04:53:04.849Z,2.09
2023-09-17T04:54:05.907Z,2.30
2023-09-17T04:55:07.019Z,2.51
2023-09-17T04:56:07.945Z,2.67
2023-09-17T04:57:09.054Z,2.79
2023-09-17T04:58:09.892Z,2.99
2023-09-17T04:59:10.775Z,3.25
2023-09-17T05:00:12.451Z,3.54
2023-09-17T05:01:12.830Z,3.79
2023-09-17T05:02:14.067Z,3.95
2023-09-17T05:03:15.260Z,4.16
2023-09-17T05:04:15.910Z,4.38
2023-09-17T05:05:17.494Z,4.61
2023-09-17T05:06:18.117Z,4.86
2023-09-17T05:07:19.045Z,5.04
2023-09-17T05:08:20.157Z,5.37
2023-09-17T05:09:20.985Z,5.78
2023-09-17T05:10:22.062Z,6.26
2023-09-17T05:11:23.149Z,6.69
2023-09-17T05:12:23.789Z,7.03
2023-09-17T05:13:24.833Z,7.30
2023-09-17T05:14:25.675Z,7.64
2023-09-17T05:15:26.834Z,8.03
2023-09-17T05:16:27.917Z,8.49
2023-09-17T05:17:29.008Z,8.93
2023-09-17T05:18:29.773Z,9.21
2023-09-17T05:19:30.787Z,9.68
2023-09-17T05:20:31.775Z,10.24
2023-09-17T05:21:32.680Z,10.79
2023-09-17T05:22:33.980Z,11.27
2023-09-17T05:23:35.182Z,11.60
2023-09-17T05:24:35.802Z,12.09
2023-09-17T05:25:36.952Z,12.70
2023-09-17T05:26:38.062Z,13.47
2023-09-17T05:27:38.799Z,14.29
2023-09-17T05:28:40.137Z,15.15
2023-09-17T05:29:41.333Z,15.77
2023-09-17T05:30:41.854Z,16.52
2023-09-17T05:31:43.188Z,17.13
2023-09-17T05:32:43.874Z,17.63
2023-09-17T05:33:44.832Z,18.15
2023-09-17T05:34:45.972Z,18.56
2023-09-17T05:35:47.063Z,19.26
2023-09-17T05:36:48.072Z,20.13
2023-09-17T05:37:50.093Z,21.34
2023-09-17T05:38:49.913Z,22.83
2023-09-17T05:39:51.062Z,24.03
2023-09-17T05:40:52.116Z,25.75
2023-09-17T05:41:53.030Z,27.49
2023-09-17T05:42:55.203Z,29.67
2023-09-17T05:43:55.524Z,31.23
2023-09-17T05:44:55.992Z,32.74
2023-09-17T05:45:57.220Z,33.50
2023-09-17T05:46:57.934Z,34.15
2023-09-17T05:47:59.565Z,34.68
2023-09-17T05:49:00.302Z,35.30
2023-09-17T05:50:01.340Z,35.94
2023-09-17T05:51:02.382Z,36.46
2023-09-17T05:52:03.044Z,37.28
2023-09-17T05:53:04.070Z,38.07
2023-09-17T05:54:05.162Z,38.99
2023-09-17T05:55:06.077Z,40.06
2023-09-17T05:56:07.106Z,40.86
2023-09-17T05:57:08.137Z,41.91
2023-09-17T05:58:09.108Z,42.94
2023-09-17T05:59:10.030Z,43.98
2023-09-17T06:00:11.177Z,44.94
2023-09-17T06:01:12.359Z,46.11
2023-09-17T06:02:13.605Z,47.02
2023-09-17T06:03:14.407Z,48.39
2023-09-17T06:04:15.441Z,49.64
2023-09-17T06:05:16.196Z,50.99
2023-09-17T06:06:17.035Z,52.20
2023-09-17T06:07:18.191Z,53.02
2023-09-17T06:08:19.274Z,54.02
2023-09-17T06:09:20.225Z,55.07
2023-09-17T06:10:21.438Z,56.15
2023-09-17T06:11:22.313Z,57.43
2023-09-17T06:12:22.998Z,58.31
2023-09-17T06:13:24.155Z,58.99
2023-09-17T06:14:24.789Z,59.38
2023-09-17T06:15:25.894Z,59.53
2023-09-17T06:16:26.884Z,59.64
2023-09-17T06:17:27.984Z,59.82
2023-09-17T06:18:29.153Z,59.71
2023-09-17T06:19:30.060Z,59.34
2023-09-17T06:20:31.264Z,58.29
2023-09-17T06:21:32.167Z,57.09
2023-09-17T06:22:32.953Z,55.78
2023-09-17T06:23:34.304Z,54.86
2023-09-17T06:24:35.231Z,53.72
2023-09-17T06:25:36.162Z,53.17
2023-09-17T06:26:37.075Z,53.20
2023-09-17T06:27:38.115Z,54.30
2023-09-17T06:28:39.169Z,53.96
2023-09-17T06:29:40.484Z,53.58
2023-09-17T06:30:41.356Z,54.18
2023-09-17T06:31:42.099Z,56.91
2023-09-17T06:32:43.158Z,59.65
2023-09-17T06:33:44.058Z,55.76
2023-09-17T06:34:45.804Z,52.46
2023-09-17T06:35:46.296Z,53.58
2023-09-17T06:36:47.185Z,54.23
2023-09-17T06:37:48.047Z,59.19
2023-09-17T06:38:49.251Z,59.19
2023-09-17T06:39:50.189Z,59.79
2023-09-17T06:40:51.436Z,63.84
2023-09-17T06:41:52.325Z,79.72
2023-09-17T06:42:53.385Z,100.29
2023-09-17T06:43:54.420Z,101.14
2023-09-17T06:44:55.350Z,100.58
2023-09-17T06:45:56.370Z,100.90
2023-09-17T06:46:57.353Z,101.54
2023-09-17T06:47:58.478Z,102.47
2023-09-17T06:48:59.417Z,104.65
2023-09-17T06:50:00.567Z,106.63
2023-09-17T06:51:01.274Z,108.59
2023-09-17T06:52:07.252Z,110.69
2023-09-17T06:53:03.203Z,112.89
2023-09-17T06:54:04.355Z,116.21
2023-09-17T06:55:05.221Z,118.62
2023-09-17T06:56:06.423Z,120.66
2023-09-17T06:57:07.347Z,124.44
2023-09-17T06:58:08.488Z,126.56
2023-09-17T06:59:09.647Z,56.31
2023-09-17T07:00:11.450Z,51.21
2023-09-17T07:01:11.868Z,122.51
2023-09-17T07:02:12.618Z,116.65
2023-09-17T07:03:13.486Z,83.99
2023-09-17T07:04:15.888Z,72.32
2023-09-17T07:05:15.585Z,62.04
2023-09-17T07:06:16.580Z,55.81
2023-09-17T07:07:17.336Z,53.14
2023-09-17T07:08:18.320Z,55.00
2023-09-17T07:09:19.742Z,43.58
2023-09-17T07:10:20.555Z,43.68
2023-09-17T07:11:24.154Z,44.34
2023-09-17T07:12:22.433Z,148.33
2023-09-17T07:13:23.458Z,172.91
2023-09-17T07:14:27.186Z,154.32
2023-09-17T07:15:25.726Z,146.50
2023-09-17T07:16:26.856Z,173.84
2023-09-17T07:17:27.720Z,167.73
2023-09-17T07:18:28.764Z,173.85
2023-09-17T07:19:31.732Z,179.52
2023-09-17T07:20:30.655Z,187.43
2023-09-17T07:21:31.498Z,81.28
2023-09-17T07:22:33.263Z,86.48
2023-09-17T07:23:34.293Z,96.38
2023-09-17T07:24:34.788Z,294.80
2023-09-17T07:25:36.652Z,253.99
2023-09-17T07:26:39.855Z,296.59
2023-09-17T07:27:39.861Z,277.17
2023-09-17T07:28:38.527Z,275.70
2023-09-17T07:29:39.568Z,277.16
2023-09-17T07:30:40.714Z,219.94
2023-09-17T07:31:41.838Z,149.12
2023-09-17T07:32:42.663Z,142.44
2023-09-17T07:33:43.807Z,131.71
2023-09-17T07:34:50.095Z,131.71
2023-09-17T07:34:54.188Z,124.02
2023-09-17T07:35:46.237Z,116.16
2023-09-17T07:36:46.791Z,103.07
2023-09-17T07:37:51.451Z,91.66
2023-09-17T07:38:48.508Z,81.69
2023-09-17T07:39:49.565Z,77.73
2023-09-17T07:40:50.583Z,70.02
2023-09-17T07:41:51.581Z,66.35
2023-09-17T07:42:52.557Z,63.95
2023-09-17T07:43:53.814Z,62.98
2023-09-17T07:44:54.555Z,63.84
2023-09-17T07:45:55.733Z,67.00
2023-09-17T07:46:59.052Z,74.97
2023-09-17T07:47:57.723Z,85.74
2023-09-17T07:49:00.164Z,99.85
2023-09-17T07:49:59.839Z,275.66
2023-09-17T07:51:01.619Z,284.73
2023-09-17T07:52:01.864Z,132.74
2023-09-17T07:53:03.157Z,188.73
2023-09-17T07:54:03.749Z,304.89
2023-09-17T07:55:04.790Z,240.09
2023-09-17T07:56:05.745Z,129.16
2023-09-17T07:57:06.750Z,106.87
2023-09-17T07:58:07.771Z,121.63
2023-09-17T07:59:09.466Z,123.64
2023-09-17T08:00:10.861Z,137.71
2023-09-17T08:01:10.773Z,149.72
2023-09-17T08:02:11.994Z,211.40
2023-09-17T08:03:18.266Z,211.40
2023-09-17T08:03:21.216Z,142.12
2023-09-17T08:04:16.010Z,121.64
2023-09-17T08:05:15.052Z,190.43
2023-09-17T08:06:16.289Z,125.91
2023-09-17T08:07:16.918Z,134.44
2023-09-17T08:08:17.863Z,134.05
2023-09-17T08:09:19.855Z,182.87
2023-09-17T08:10:22.174Z,143.91
2023-09-17T08:11:20.982Z,289.86
2023-09-17T08:12:21.660Z,364.94
2023-09-17T08:13:24.482Z,337.82
2023-09-17T08:14:30.080Z,340.58
2023-09-17T08:15:25.002Z,367.29
2023-09-17T08:16:30.833Z,357.15
2023-09-17T08:17:26.871Z,411.64
2023-09-17T08:18:33.052Z,411.64
2023-09-17T08:18:37.330Z,236.76
2023-09-17T08:19:28.692Z,213.19
2023-09-17T08:20:29.929Z,232.31
2023-09-17T08:21:33.044Z,233.13
2023-09-17T08:22:31.797Z,306.94
2023-09-17T08:23:32.860Z,195.64
2023-09-17T08:24:38.845Z,187.66
2023-09-17T08:25:35.023Z,271.28
2023-09-17T08:26:35.930Z,186.61
2023-09-17T08:27:36.798Z,175.55
2023-09-17T08:28:37.835Z,168.22
2023-09-17T08:29:38.856Z,162.36
2023-09-17T08:30:40.167Z,161.30
2023-09-17T08:31:43.500Z,162.52
2023-09-17T08:32:42.053Z,148.48
2023-09-17T08:33:42.936Z,136.72
2023-09-17T08:34:43.934Z,149.55
2023-09-17T08:35:44.976Z,120.81
2023-09-17T08:36:46.033Z,126.66
2023-09-17T08:37:46.916Z,128.45
2023-09-17T08:38:48.143Z,132.44
2023-09-17T08:39:48.921Z,385.95
2023-09-17T08:40:50.030Z,127.01
2023-09-17T08:41:51.000Z,247.82
2023-09-17T08:42:51.963Z,164.93
2023-09-17T08:43:53.131Z,149.16
2023-09-17T08:44:53.775Z,129.32
2023-09-17T08:45:57.390Z,343.95
2023-09-17T08:46:56.007Z,316.93
2023-09-17T08:47:56.912Z,102.64
2023-09-17T08:49:02.919Z,88.70
2023-09-17T08:49:58.885Z,85.47
2023-09-17T08:51:02.643Z,77.95
2023-09-17T08:52:01.038Z,74.36
2023-09-17T08:53:01.802Z,75.45
2023-09-17T08:54:03.022Z,76.08
2023-09-17T08:55:04.032Z,344.89
2023-09-17T08:56:05.094Z,273.83
2023-09-17T08:57:06.054Z,235.09
2023-09-17T08:58:07.130Z,327.23
2023-09-17T08:59:08.153Z,346.37
2023-09-17T09:00:09.408Z,351.47
2023-09-17T09:01:10.127Z,283.57
2023-09-17T09:02:11.321Z,343.38
2023-09-17T09:03:12.313Z,317.71
2023-09-17T09:04:13.174Z,292.27
2023-09-17T09:05:14.093Z,288.53
2023-09-17T09:06:15.299Z,313.88
2023-09-17T09:07:16.245Z,378.26
2023-09-17T09:08:17.194Z,319.60
2023-09-17T09:09:18.061Z,280.23
2023-09-17T09:10:19.206Z,147.07
2023-09-17T09:11:20.361Z,285.19
2023-09-17T09:12:21.142Z,287.70
2023-09-17T09:13:22.206Z,294.14
2023-09-17T09:14:23.079Z,297.70
2023-09-17T09:15:29.237Z,301.27
2023-09-17T09:16:25.182Z,299.87
2023-09-17T09:17:26.106Z,298.77
2023-09-17T09:18:27.128Z,281.17
2023-09-17T09:19:28.243Z,196.49
2023-09-17T09:20:29.205Z,142.57
2023-09-17T09:21:32.902Z,175.02
2023-09-17T09:22:31.244Z,159.58
2023-09-17T09:23:32.152Z,157.11
2023-09-17T09:24:33.010Z,222.50
2023-09-17T09:25:34.209Z,179.20
2023-09-17T09:26:35.202Z,178.38
2023-09-17T09:27:36.331Z,256.74
2023-09-17T09:28:37.312Z,252.34
2023-09-17T09:29:38.126Z,270.24
2023-09-17T09:30:42.399Z,339.13
2023-09-17T09:31:40.371Z,396.33
2023-09-17T09:32:41.244Z,301.73
2023-09-17T09:33:42.301Z,171.11
2023-09-17T09:34:43.364Z,124.25
2023-09-17T09:35:44.275Z,242.49
2023-09-17T09:36:45.320Z,396.77
2023-09-17T09:37:46.303Z,299.84
2023-09-17T09:38:47.428Z,313.39
2023-09-17T09:39:48.251Z,349.63
2023-09-17T09:40:49.187Z,274.66
2023-09-17T09:41:50.433Z,272.96
2023-09-17T09:42:51.225Z,269.31
2023-09-17T09:43:52.426Z,261.22
2023-09-17T09:44:53.400Z,268.22
2023-09-17T09:45:54.581Z,271.87
2023-09-17T09:46:55.543Z,272.82
2023-09-17T09:47:56.390Z,261.14
2023-09-17T09:48:57.550Z,249.98
2023-09-17T09:49:58.509Z,241.48
2023-09-17T09:51:02.461Z,233.25
2023-09-17T09:52:00.564Z,229.22
2023-09-17T09:53:01.665Z,228.17
2023-09-17T09:54:02.497Z,231.17
2023-09-17T09:55:03.793Z,250.07
2023-09-17T09:56:04.638Z,271.78
2023-09-17T09:57:05.700Z,230.11
2023-09-17T09:58:06.578Z,234.65
2023-09-17T09:59:07.316Z,318.23
2023-09-17T10:00:08.827Z,301.67
2023-09-17T10:01:09.532Z,217.58
2023-09-17T10:02:10.610Z,208.38
2023-09-17T10:03:11.532Z,204.66
2023-09-17T10:04:12.582Z,254.93
2023-09-17T10:05:13.657Z,221.26
2023-09-17T10:06:14.642Z,231.48
2023-09-17T10:07:15.520Z,215.06
2023-09-17T10:08:16.613Z,216.47
2023-09-17T10:09:17.627Z,236.08
2023-09-17T10:10:18.759Z,228.14
2023-09-17T10:11:19.748Z,237.42
2023-09-17T10:12:20.567Z,246.73
2023-09-17T10:13:21.593Z,265.15
2023-09-17T10:14:22.592Z,252.64
2023-09-17T10:15:23.630Z,254.01
2023-09-17T10:16:24.435Z,246.32
2023-09-17T10:17:25.661Z,238.77
2023-09-17T10:18:26.556Z,286.02
2023-09-17T10:19:27.451Z,235.12
2023-09-17T10:20:28.731Z,232.00
2023-09-17T10:21:29.759Z,231.18
2023-09-17T10:22:30.756Z,230.17
2023-09-17T10:23:31.551Z,229.33
2023-09-17T10:24:32.761Z,234.33
2023-09-17T10:25:33.815Z,251.12
2023-09-17T10:26:34.817Z,316.90
2023-09-17T10:27:36.047Z,325.12
2023-09-17T10:28:36.701Z,457.86
2023-09-17T10:29:37.911Z,446.59
2023-09-17T10:30:38.602Z,271.40
2023-09-17T10:31:44.823Z,271.40
2023-09-17T10:31:48.763Z,353.54
2023-09-17T10:32:40.881Z,575.05
2023-09-17T10:33:41.580Z,433.99
2023-09-17T10:34:42.646Z,218.45
2023-09-17T10:35:43.625Z,204.74
2023-09-17T10:36:44.771Z,204.93
2023-09-17T10:37:45.815Z,284.02
2023-09-17T10:38:46.797Z,237.43
2023-09-17T10:39:47.869Z,194.34
2023-09-17T10:40:48.826Z,236.72
2023-09-17T10:41:49.896Z,516.08
2023-09-17T10:42:50.941Z,405.04
2023-09-17T10:43:52.101Z,504.69
2023-09-17T10:44:54.374Z,508.96
2023-09-17T10:45:54.080Z,443.38
2023-09-17T10:46:54.858Z,407.32
2023-09-17T10:47:55.951Z,485.46
2023-09-17T10:48:59.902Z,479.20
2023-09-17T10:49:58.083Z,476.31
2023-09-17T10:50:58.948Z,472.79
2023-09-17T10:51:59.864Z,471.82
2023-09-17T10:53:01.032Z,469.97
2023-09-17T10:54:01.726Z,470.12
2023-09-17T10:55:03.021Z,448.97
2023-09-17T10:56:04.086Z,470.74
2023-09-17T10:57:04.935Z,471.33
2023-09-17T10:58:05.996Z,469.25
2023-09-17T10:59:09.770Z,473.01
2023-09-17T11:00:08.411Z,470.88
2023-09-17T11:01:08.985Z,470.23
2023-09-17T11:02:10.161Z,469.29
2023-09-17T11:03:11.054Z,470.24
2023-09-17T11:04:12.014Z,470.71
2023-09-17T11:05:12.927Z,471.18
2023-09-17T11:06:14.065Z,470.71
2023-09-17T11:07:15.037Z,471.29
2023-09-17T11:08:16.127Z,472.03
2023-09-17T11:09:16.930Z,470.96
2023-09-17T11:10:31.274Z,469.82
2023-09-17T11:11:19.199Z,469.12
2023-09-17T11:12:19.638Z,469.91
2023-09-17T11:13:20.871Z,470.53
2023-09-17T11:14:21.902Z,470.28
2023-09-17T11:15:23.062Z,470.00
2023-09-17T11:16:26.950Z,469.55
2023-09-17T11:17:25.063Z,469.39
2023-09-17T11:18:26.074Z,470.49
2023-09-17T11:19:26.694Z,470.13
2023-09-17T11:20:28.045Z,471.25
2023-09-17T11:21:28.953Z,471.13
2023-09-17T11:22:30.157Z,470.49
2023-09-17T11:23:31.184Z,469.49
2023-09-17T11:24:31.975Z,470.23
2023-09-17T11:25:32.727Z,466.58
2023-09-17T11:26:34.128Z,469.85
2023-09-17T11:27:34.851Z,469.82
2023-09-17T11:28:35.950Z,470.30
2023-09-17T11:29:36.989Z,470.61
2023-09-17T11:30:38.371Z,469.46
2023-09-17T11:31:39.161Z,468.47
2023-09-17T11:32:39.915Z,466.80
2023-09-17T11:33:40.979Z,467.95
2023-09-17T11:34:42.135Z,462.60
2023-09-17T11:35:42.947Z,468.39
2023-09-17T11:36:44.010Z,470.21
2023-09-17T11:37:45.149Z,470.62
2023-09-17T11:38:45.931Z,472.22
2023-09-17T11:39:46.981Z,472.09
2023-09-17T11:40:48.285Z,467.13
2023-09-17T11:41:49.342Z,471.85
2023-09-17T11:42:50.227Z,473.49
2023-09-17T11:43:51.685Z,470.62
2023-09-17T11:44:51.985Z,469.04
2023-09-17T11:45:53.319Z,472.30
2023-09-17T11:46:54.313Z,471.40
2023-09-17T11:47:55.147Z,469.25
2023-09-17T11:48:56.223Z,465.83
2023-09-17T11:49:57.245Z,438.24
2023-09-17T11:50:58.261Z,393.46
2023-09-17T11:51:59.256Z,407.53
2023-09-17T11:53:00.362Z,417.96
2023-09-17T11:54:01.314Z,407.70
2023-09-17T11:55:02.281Z,425.88
2023-09-17T11:56:03.283Z,389.96
2023-09-17T11:57:04.315Z,437.28
2023-09-17T11:58:05.260Z,455.04
2023-09-17T11:59:06.278Z,450.09
2023-09-17T12:00:07.336Z,460.02
2023-09-17T12:01:08.303Z,471.44
2023-09-17T12:02:12.027Z,465.94
2023-09-17T12:03:10.307Z,419.50
2023-09-17T12:04:11.449Z,251.16
2023-09-17T12:05:12.492Z,482.05
2023-09-17T12:06:13.358Z,479.96
2023-09-17T12:07:14.203Z,480.36
2023-09-17T12:08:15.235Z,485.68
2023-09-17T12:09:16.412Z,480.36
2023-09-17T12:10:17.500Z,484.29
2023-09-17T12:11:21.589Z,488.76
2023-09-17T12:12:19.205Z,486.84
2023-09-17T12:13:19.997Z,482.94
2023-09-17T12:14:21.189Z,467.73
2023-09-17T12:15:22.242Z,489.59
2023-09-17T12:16:23.324Z,485.11
2023-09-17T12:17:24.248Z,477.68
2023-09-17T12:18:25.150Z,472.27
2023-09-17T12:19:29.412Z,456.62
2023-09-17T12:20:27.292Z,447.11
2023-09-17T12:21:28.124Z,441.87
2023-09-17T12:22:29.231Z,436.84
2023-09-17T12:23:30.172Z,454.48
2023-09-17T12:24:31.241Z,452.31
2023-09-17T12:25:32.333Z,432.56
2023-09-17T12:26:33.351Z,461.64
2023-09-17T12:27:37.421Z,453.29
2023-09-17T12:28:35.623Z,440.92
2023-09-17T12:29:36.288Z,439.16
2023-09-17T12:30:37.458Z,435.79
2023-09-17T12:31:38.364Z,450.56
2023-09-17T12:32:39.365Z,442.85
2023-09-17T12:33:43.273Z,426.40
2023-09-17T12:34:41.423Z,417.76
2023-09-17T12:35:42.491Z,413.74
2023-09-17T12:36:43.358Z,421.48
2023-09-17T12:37:44.212Z,427.24
2023-09-17T12:38:48.464Z,421.78
2023-09-17T12:39:46.269Z,424.93
2023-09-17T12:40:50.148Z,429.24
2023-09-17T12:41:48.412Z,423.29
2023-09-17T12:42:49.389Z,429.59
2023-09-17T12:43:53.621Z,417.93
2023-09-17T12:44:51.361Z,406.05
2023-09-17T12:45:52.445Z,412.68
2023-09-17T12:46:53.568Z,403.59
2023-09-17T12:47:54.496Z,377.53
2023-09-17T12:48:55.465Z,366.05
2023-09-17T12:49:56.997Z,387.34
2023-09-17T12:50:58.803Z,406.35
2023-09-17T12:52:01.305Z,414.58
2023-09-17T12:52:59.683Z,417.46
2023-09-17T12:54:00.540Z,424.55
2023-09-17T12:55:01.578Z,406.31
2023-09-17T12:56:02.460Z,385.14
2023-09-17T12:57:03.620Z,386.72
2023-09-17T12:58:04.606Z,370.66
2023-09-17T12:59:05.624Z,376.07
2023-09-17T13:00:06.572Z,375.14